Time;durP1;ratioP1;P1;durP2;ratioP2;P2;SDS_P1;SDS_P2;PMS_P1;PMS_P2;Temp;Humidity;BMP_temperature;BMP_pressure;BME280_temperature;BME280_humidity;BME280_pressure;Samples;Min_cycle;Max_cycle;Signal;HPM_P1;HPM_P2
2023/01/13 00:02:42;;;;;;;;;14.25;11.50;;;;;7.19;65.82;101328.87;146618;570;46020;-67
2023/01/13 00:05:45;;;;;;;;;15.75;13.50;;;;;3.89;65.09;100788.34;146604;624;46016;-67
2023/01/13 00:08:40;;;;;;;;;20.75;18.25;;;;;7.04;65.94;101344.12;146613;656;47010;-67
2023/01/13 00:11:38;;;;;;;;;19.50;19.00;;;;;7.07;66.07;101351.19;146609;630;46012;-67
2023/01/13 00:14:37;;;;;;;;;18.75;15.75;;;;;7.08;65.99;101353.00;146604;651;46020;-66
2023/01/13 00:17:34;;;;;;;;;14.25;12.25;;;;;7.10;66.25;101351.41;146611;573;46016;-68
2023/01/13 00:20:38;;;;;;;;;13.25;12.00;;;;;7.17;65.79;101353.69;146607;619;47010;-68
2023/01/13 00:23:34;;;;;;;;;16.50;14.00;;;;;7.25;66.66;101357.72;146612;653;46032;-67
2023/01/13 00:26:35;;;;;;;;;20.50;16.50;;;;;7.31;65.25;101360.75;146609;602;46020;-68
2023/01/13 00:29:29;;;;;;;;;29.00;27.50;;;;;7.40;64.63;101360.53;146609;579;46916;-67
2023/01/13 00:32:31;;;;;;;;;26.00;21.75;;;;;7.50;64.31;101356.97;146612;571;46032;-66
2023/01/13 00:35:33;;;;;;;;;15.75;13.00;;;;;7.54;65.20;101359.88;146613;685;46012;-67
2023/01/13 00:38:26;;;;;;;;;19.00;13.00;;;;;7.57;65.51;101356.59;146615;569;46020;-71
2023/01/13 00:43:21;;;;;;;;;15.25;13.25;;;;;7.55;65.53;101353.03;146610;700;46012;-71
2023/01/13 00:44:46;;;;;;;;;15.00;13.25;;;;;7.52;66.09;101351.13;146607;583;46010;-71
2023/01/13 00:47:47;;;;;;;;;11.50;9.25;;;;;7.50;65.98;101351.78;146613;575;46035;-69
2023/01/13 00:50:49;;;;;;;;;15.50;14.00;;;;;7.47;66.01;101349.00;146617;573;46020;-69
2023/01/13 00:53:55;;;;;;;;;18.75;15.00;;;;;7.46;65.67;101357.53;146609;617;46016;-71
2023/01/13 00:56:51;;;;;;;;;11.25;10.25;;;;;7.44;66.37;101354.81;146614;641;46020;-67
2023/01/13 00:59:47;;;;;;;;;19.25;15.75;;;;;7.43;67.42;101352.13;146610;577;46916;-67
2023/01/13 01:02:53;;;;;;;;;17.75;16.75;;;;;7.38;67.76;101344.97;146612;640;46010;-68
2023/01/13 01:05:47;;;;;;;;;16.00;13.00;;;;;7.37;67.55;101347.41;146606;625;47916;-68
2023/01/13 01:08:40;;;;;;;;;18.75;17.25;;;;;7.32;66.90;101334.19;146611;564;46021;-67
2023/01/13 01:11:46;;;;;;;;;17.50;14.25;;;;;4.05;66.19;100755.44;146610;591;47014;-69
2023/01/13 01:14:57;;;;;;;;;17.00;13.75;;;;;7.38;65.65;101334.66;146608;565;46012;-69
2023/01/13 01:17:53;;;;;;;;;14.00;12.00;;;;;7.45;65.25;101333.41;146611;615;47016;-68
2023/01/13 01:20:52;;;;;;;;;18.50;17.00;;;;;7.49;64.62;101337.09;146613;570;46010;-68
2023/01/13 01:23:54;;;;;;;;;19.50;16.50;;;;;7.54;64.75;101333.16;146609;580;46917;-70
2023/01/13 01:26:55;;;;;;;;;21.75;16.50;;;;;7.58;63.98;101332.63;146613;591;46010;-70
2023/01/13 01:29:50;;;;;;;;;21.75;19.50;;;;;7.63;63.47;101336.41;146609;620;46017;-69
2023/01/13 01:33:04;;;;;;;;;19.25;15.75;;;;;4.57;62.89;100789.31;146613;577;46020;-69
2023/01/13 01:36:03;;;;;;;;;22.25;19.75;;;;;7.65;63.45;101337.44;146611;657;46017;-70
2023/01/13 01:38:56;;;;;;;;;18.00;14.75;;;;;7.62;63.46;101334.63;146615;616;46010;-68
2023/01/13 01:45:30;;;;;;;;;21.00;18.00;;;;;7.56;63.39;101334.19;146608;576;46031;-69
2023/01/13 01:48:26;;;;;;;;;18.50;14.50;;;;;7.55;63.56;101328.13;146611;569;46016;-68
2023/01/13 01:51:31;;;;;;;;;20.50;19.00;;;;;7.56;63.51;101327.31;146614;609;46020;-69
2023/01/13 01:54:31;;;;;;;;;16.00;13.25;;;;;7.57;63.32;101328.22;146609;641;47014;-69
2023/01/13 01:57:35;;;;;;;;;13.50;12.00;;;;;7.47;63.24;101328.34;146611;619;46010;-68
2023/01/13 02:00:31;;;;;;;;;14.25;13.00;;;;;7.35;63.40;101326.69;146611;602;46014;-68
2023/01/13 02:03:27;;;;;;;;;14.75;13.00;;;;;7.20;64.16;101337.56;146613;565;46035;-69
2023/01/13 02:06:31;;;;;;;;;15.25;13.00;;;;;6.93;64.23;101325.28;146612;576;46017;-71
2023/01/13 02:09:33;;;;;;;;;20.00;16.00;;;;;6.75;64.40;101329.03;146611;606;47010;-71
2023/01/13 02:12:36;;;;;;;;;13.00;12.75;;;;;6.62;65.28;101326.31;146611;580;46017;-76
2023/01/13 02:15:50;;;;;;;;;17.75;14.50;;;;;6.54;65.33;101319.66;146607;573;47012;-72
2023/01/13 02:19:20;;;;;;;;;15.75;13.75;;;;;6.51;65.23;101319.41;146612;639;46016;-66
2023/01/13 02:23:04;;;;;;;;;17.00;15.25;;;;;3.17;65.07;100760.41;146612;585;46020;-66
2023/01/13 02:26:44;;;;;;;;;23.00;17.75;;;;;6.42;66.18;101325.69;146598;583;47922;-68
2023/01/13 02:34:16;;;;;;;;;22.00;16.25;;;;;6.43;66.11;101316.28;146612;569;46014;-66
2023/01/13 02:37:22;;;;;;;;;17.75;15.00;;;;;6.44;66.48;101315.47;146614;592;46010;-68
2023/01/13 02:40:37;;;;;;;;;18.00;16.00;;;;;6.45;66.43;101315.63;146608;593;46014;-69
2023/01/13 02:44:07;;;;;;;;;19.00;16.75;;;;;6.52;65.38;101313.50;146615;577;46021;-69
2023/01/13 02:47:19;;;;;;;;;20.25;18.00;;;;;6.59;66.28;101313.19;146613;634;46016;-69
2023/01/13 02:50:36;;;;;;;;;27.50;22.25;;;;;6.66;66.46;101316.34;146620;574;46021;-68
2023/01/13 02:53:58;;;;;;;;;26.50;20.50;;;;;6.72;65.47;101319.38;146614;604;46016;-67
2023/01/13 02:56:53;;;;;;;;;19.75;15.75;;;;;6.78;65.89;101305.16;146614;582;46020;-68
2023/01/13 03:00:08;;;;;;;;;;;;;;;;;;;;;
2023/01/13 03:03:09;;;;;;;;;23.00;17.75;;;;;6.82;67.29;101300.38;146619;651;46020;-67
2023/01/13 03:06:55;;;;;;;;;19.00;16.50;;;;;3.63;67.63;100752.94;146613;581;46014;-67
2023/01/13 03:10:28;;;;;;;;;17.25;15.50;;;;;6.70;67.19;101292.62;146618;638;46010;-68
2023/01/13 03:14:10;;;;;;;;;21.75;16.75;;;;;3.15;67.70;100673.97;146612;602;46017;-68
2023/01/13 03:17:43;;;;;;;;;21.50;20.00;;;;;6.66;67.93;101295.72;146620;679;46020;-67
2023/01/13 03:20:49;;;;;;;;;21.75;17.25;;;;;6.65;68.00;101293.03;146617;641;46013;-67
2023/01/13 03:24:06;;;;;;;;;20.50;16.50;;;;;3.47;67.66;100730.34;146619;657;46012;-67
2023/01/13 03:27:14;;;;;;;;;22.75;16.50;;;;;6.60;68.50;101279.78;146610;594;46016;-66
2023/01/13 03:30:34;;;;;;;;;24.25;19.00;;;;;6.60;67.95;101279.78;146617;582;46021;-67
2023/01/13 03:33:54;;;;;;;;;19.75;15.00;;;;;3.41;68.04;100737.53;146614;653;46016;-67
2023/01/13 03:37:00;;;;;;;;;;;;;;;;;;;;;
2023/01/13 03:40:23;;;;;;;;;;;;;;;;;;;;;
2023/01/13 03:47:44;;;;;;;;;21.50;17.00;;;;;3.39;65.87;100723.69;146605;627;46014;-67
2023/01/13 03:50:53;;;;;;;;;23.25;20.25;;;;;6.58;67.08;101298.53;146610;613;47013;-68
2023/01/13 03:54:24;;;;;;;;;20.75;18.25;;;;;3.27;66.28;100708.25;146609;655;46016;-66
2023/01/13 03:57:33;;;;;;;;;25.50;21.75;;;;;3.35;67.07;100737.06;146606;580;46021;-65
2023/01/13 04:01:00;;;;;;;;;22.50;17.50;;;;;3.26;65.69;100710.69;146609;586;46012;-66
2023/01/13 04:04:22;;;;;;;;;19.50;15.75;;;;;6.34;64.60;101246.91;146612;578;46020;-68
2023/01/13 04:07:46;;;;;;;;;27.00;18.75;;;;;6.71;64.97;101319.28;146607;628;46916;-65
2023/01/13 04:11:12;;;;;;;;;23.75;17.75;;;;;6.74;64.97;101328.94;146613;606;46020;-67
2023/01/13 04:14:26;;;;;;;;;;;;;;;;;;;;;
2023/01/13 04:17:19;;;;;;;;;17.50;15.25;;;;;6.68;65.02;101337.97;146612;580;46020;-67
2023/01/13 04:20:26;;;;;;;;;20.75;17.25;;;;;3.47;64.24;100785.06;146606;569;46917;-70
2023/01/13 04:23:40;;;;;;;;;19.25;17.75;;;;;6.65;64.49;101342.00;146605;612;46913;-68
2023/01/13 04:26:56;;;;;;;;;24.50;20.75;;;;;3.40;64.84;100769.97;146609;585;46034;-68
2023/01/13 04:29:49;;;;;;;;;22.75;16.50;;;;;6.67;64.41;101337.88;146608;584;46010;-68
2023/01/13 04:32:44;;;;;;;;;19.00;14.00;;;;;6.71;64.45;101350.22;146610;563;46016;-69
2023/01/13 04:35:51;;;;;;;;;15.75;14.50;;;;;3.47;64.10;100795.31;146613;569;46011;-72
2023/01/13 04:38:46;;;;;;;;;18.50;16.50;;;;;6.73;64.27;101369.28;146609;591;46012;-72
2023/01/13 04:42:00;;;;;;;;;17.50;15.25;;;;;6.70;64.34;101363.88;146610;576;46021;-68
2023/01/13 04:45:08;;;;;;;;;;;;;;;;;;;;;
2023/01/13 04:48:05;;;;;;;;;18.25;16.75;;;;;6.68;63.60;101362.84;146615;580;46010;-66
2023/01/13 04:51:00;;;;;;;;;15.00;12.25;;;;;6.70;64.17;101359.63;146612;627;46016;-67
2023/01/13 04:53:58;;;;;;;;;21.25;18.25;;;;;6.72;63.59;101352.00;146612;565;46020;-68
2023/01/13 04:57:00;;;;;;;;;13.25;11.50;;;;;6.76;63.24;101363.44;146611;566;47016;-67
2023/01/13 05:00:00;;;;;;;;;19.50;15.75;;;;;6.71;63.49;101355.34;146607;604;47012;-66
2023/01/13 05:02:58;;;;;;;;;17.25;15.00;;;;;6.68;63.36;101363.75;146605;583;47014;-68
2023/01/13 05:05:54;;;;;;;;;14.25;14.00;;;;;6.66;63.91;101361.84;146616;602;46010;-67
2023/01/13 05:08:51;;;;;;;;;21.00;14.25;;;;;6.64;63.99;101360.84;146611;563;46016;-68
2023/01/13 05:18:24;;;;;;;;;21.50;13.50;;;;;6.40;64.38;101376.19;146609;586;46010;-67
2023/01/13 05:28:04;;;;;;;;;14.75;13.50;;;;;6.36;65.00;101392.19;146612;597;47013;-70
2023/01/13 05:31:17;;;;;;;;;;;;;;;;;;;;;
2023/01/13 05:34:12;;;;;;;;;23.00;17.50;;;;;6.42;64.98;101386.63;146611;625;46036;-70
2023/01/13 05:37:06;;;;;;;;;18.50;14.75;;;;;6.42;64.56;101381.47;146611;576;46010;-70
2023/01/13 05:43:40;;;;;;;;;16.50;16.00;;;;;6.43;64.35;101399.59;146616;577;46021;-68
2023/01/13 05:46:36;;;;;;;;;18.25;15.50;;;;;6.44;64.48;101391.06;146602;625;47012;-68
2023/01/13 05:49:48;;;;;;;;;20.00;16.25;;;;;6.47;64.63;101390.44;146613;610;46021;-69
2023/01/13 05:52:48;;;;;;;;;16.75;14.50;;;;;6.49;64.72;101404.34;146610;569;46016;-69
2023/01/13 05:56:09;;;;;;;;;18.75;16.00;;;;;3.21;63.74;100834.22;146613;592;46020;-69
2023/01/13 05:59:04;;;;;;;;;22.00;19.25;;;;;6.44;64.59;101405.66;146611;573;46012;-68
2023/01/13 06:02:03;;;;;;;;;23.25;19.25;;;;;6.41;64.37;101406.28;146606;604;46020;-67
2023/01/13 06:05:10;;;;;;;;;;;;;;;;;;;;;
2023/01/13 06:08:18;;;;;;;;;21.75;17.75;;;;;3.31;63.94;100865.72;146611;605;46032;-71
2023/01/13 06:11:16;;;;;;;;;24.75;19.75;;;;;6.43;64.30;101403.84;146609;637;46017;-65
2023/01/13 06:14:15;;;;;;;;;16.75;15.00;;;;;6.47;64.09;101416.19;146614;592;46026;-67
2023/01/13 06:17:16;;;;;;;;;25.00;18.00;;;;;6.52;64.49;101417.47;146610;582;46016;-67
2023/01/13 06:20:21;;;;;;;;;23.75;19.50;;;;;6.56;65.08;101421.16;146611;578;47012;-68
2023/01/13 06:23:33;;;;;;;;;29.25;24.50;;;;;6.62;64.33;101421.66;146612;717;46016;-68
2023/01/13 06:26:28;;;;;;;;;24.50;21.50;;;;;6.65;63.99;101416.75;146611;605;46021;-68
2023/01/13 06:29:23;;;;;;;;;24.75;20.50;;;;;6.68;64.04;101422.12;146609;575;46016;-68
2023/01/13 06:32:47;;;;;;;;;22.75;21.00;;;;;4.28;63.37;100982.19;146607;605;46020;-69
2023/01/13 06:35:41;;;;;;;;;19.00;18.50;;;;;7.30;63.71;101423.47;146608;593;47012;-68
2023/01/13 06:38:55;;;;;;;;;16.25;14.75;;;;;8.08;62.88;101423.16;146614;638;46020;-68
2023/01/13 06:45:13;;;;;;;;;18.50;17.00;;;;;9.58;57.33;101427.53;146614;563;46020;-66
2023/01/13 06:48:18;;;;;;;;;17.50;16.00;;;;;10.13;54.74;101406.13;146610;574;46918;-67
2023/01/13 06:51:12;;;;;;;;;15.00;12.50;;;;;10.69;51.47;101430.37;146613;684;46010;-67
2023/01/13 06:54:23;;;;;;;;;14.75;13.75;;;;;7.86;52.92;100912.09;146607;597;47014;-67
2023/01/13 06:57:16;;;;;;;;;16.25;13.75;;;;;11.14;52.04;101433.97;146612;582;46021;-67
2023/01/13 07:00:21;;;;;;;;;19.00;14.50;;;;;11.40;50.13;101423.44;146608;583;46016;-67
2023/01/13 07:03:20;;;;;;;;;24.00;17.00;;;;;11.63;50.58;101435.16;146606;587;46012;-68
2023/01/13 07:06:14;;;;;;;;;19.00;16.50;;;;;11.99;49.71;101439.03;146608;735;46016;-67
2023/01/13 07:09:07;;;;;;;;;20.00;14.25;;;;;12.40;49.91;101430.03;146611;620;46020;-67
2023/01/13 07:12:18;;;;;;;;;17.50;17.00;;;;;10.12;49.83;100955.13;146606;571;47014;-68
2023/01/13 07:15:21;;;;;;;;;18.75;15.50;;;;;13.38;48.48;101455.22;146612;576;46020;-66
2023/01/13 07:18:30;;;;;;;;;15.00;15.00;;;;;11.17;49.36;100977.34;146613;566;46013;-67
2023/01/13 07:22:02;;;;;;;;;19.50;16.25;;;;;14.47;47.21;101465.81;146614;594;46010;-66
2023/01/13 07:25:09;;;;;;;;;18.25;15.75;;;;;14.86;43.98;101465.88;146609;573;46916;-69
2023/01/13 07:28:14;;;;;;;;;19.50;17.00;;;;;15.01;43.69;101461.34;146613;619;46020;-68
2023/01/13 07:31:31;;;;;;;;;24.75;21.50;;;;;15.07;44.65;101472.06;146608;685;46022;-68
2023/01/13 07:34:29;;;;;;;;;15.50;13.75;;;;;15.09;43.65;101472.16;146607;565;46020;-67
2023/01/13 07:37:31;;;;;;;;;;;;;;;;;;;;;
2023/01/13 07:40:28;;;;;;;;;18.00;14.50;;;;;15.20;43.05;101466.59;146610;639;48020;-67
2023/01/13 07:43:32;;;;;;;;;21.25;16.50;;;;;15.14;41.99;101471.56;146610;598;46016;-68
2023/01/13 07:46:37;;;;;;;;;16.50;16.00;;;;;14.86;42.19;101473.72;146612;613;46010;-67
2023/01/13 07:49:35;;;;;;;;;14.25;13.00;;;;;14.44;44.09;101473.47;146610;589;46016;-67
2023/01/13 07:52:30;;;;;;;;;20.00;15.50;;;;;14.11;43.63;101471.03;146612;590;46012;-66
2023/01/13 07:55:26;;;;;;;;;12.00;10.75;;;;;13.84;44.33;101476.69;146612;593;46012;-66
2023/01/13 07:58:31;;;;;;;;;10.50;9.25;;;;;13.51;44.30;101448.91;146613;616;46010;-67
2023/01/13 08:01:32;;;;;;;;;14.25;12.25;;;;;13.41;44.54;101457.97;146616;663;46918;-67
2023/01/13 08:04:27;;;;;;;;;14.00;13.00;;;;;13.23;45.76;101451.78;146609;609;46030;-66
2023/01/13 08:07:21;;;;;;;;;14.50;12.25;;;;;13.12;46.21;101453.84;146612;616;46016;-67
2023/01/13 08:10:22;;;;;;;;;12.75;12.50;;;;;13.06;46.87;101463.94;146610;624;47011;-68
2023/01/13 08:13:30;;;;;;;;;15.00;13.75;;;;;10.25;47.76;100972.25;146610;582;46012;-66
2023/01/13 08:16:23;;;;;;;;;18.75;16.00;;;;;12.93;46.48;101450.25;146612;656;46012;-66
2023/01/13 08:19:16;;;;;;;;;15.00;13.25;;;;;12.92;45.70;101451.06;146609;637;46030;-68
2023/01/13 08:22:14;;;;;;;;;14.25;12.50;;;;;12.70;45.92;101454.22;146612;580;46020;-66
2023/01/13 08:25:19;;;;;;;;;14.75;13.25;;;;;12.50;46.88;101443.56;146609;585;46016;-65
2023/01/13 08:28:16;;;;;;;;;13.00;11.00;;;;;12.38;47.67;101449.88;146612;564;47012;-66
2023/01/13 08:31:15;;;;;;;;;17.75;13.50;;;;;12.39;46.75;101445.56;146610;591;46016;-66
2023/01/13 08:34:18;;;;;;;;;13.25;12.25;;;;;12.40;47.52;101439.56;146607;572;47010;-66
2023/01/13 08:37:15;;;;;;;;;15.00;13.00;;;;;12.44;46.72;101444.09;146611;624;47012;-66
2023/01/13 08:40:22;;;;;;;;;12.50;11.75;;;;;12.47;47.77;101452.09;146613;593;46021;-67
2023/01/13 08:43:18;;;;;;;;;17.00;13.75;;;;;12.54;47.54;101442.91;146603;578;47917;-66
2023/01/13 08:46:18;;;;;;;;;17.00;14.50;;;;;12.69;48.74;101449.84;146611;641;46020;-66
2023/01/13 08:49:16;;;;;;;;;14.50;12.50;;;;;12.81;47.51;101440.91;146610;566;46014;-66
2023/01/13 08:52:29;;;;;;;;;14.75;12.00;;;;;10.01;47.96;100936.41;146610;689;46020;-67
2023/01/13 08:55:43;;;;;;;;;11.75;10.75;;;;;10.33;48.50;100960.69;146610;629;46016;-66
2023/01/13 08:58:49;;;;;;;;;14.50;10.50;;;;;13.27;46.47;101441.66;146613;563;46020;-66
2023/01/13 09:01:46;;;;;;;;;12.75;11.75;;;;;13.36;46.95;101444.75;146607;608;46016;-66
2023/01/13 09:04:41;;;;;;;;;15.00;10.75;;;;;13.52;46.88;101453.31;146607;600;46021;-65
2023/01/13 09:07:35;;;;;;;;;10.25;9.25;;;;;13.70;45.55;101451.63;146610;565;46034;-67
2023/01/13 09:10:39;;;;;;;;;17.25;15.50;;;;;13.86;45.42;101442.84;146621;597;46011;-66
2023/01/13 09:13:37;;;;;;;;;20.00;17.25;;;;;14.03;46.41;101444.59;146609;617;46917;-67
2023/01/13 09:16:36;;;;;;;;;16.75;14.25;;;;;14.17;46.58;101446.97;146611;667;47010;-68
2023/01/13 09:19:42;;;;;;;;;16.75;16.75;;;;;14.29;47.07;101448.44;146603;593;47012;-66
2023/01/13 09:22:54;;;;;;;;;17.50;14.50;;;;;14.51;46.88;101445.16;146613;598;46020;-66
2023/01/13 09:25:57;;;;;;;;;9.00;7.50;;;;;14.61;44.39;101445.59;146608;584;47012;-66
2023/01/13 09:28:51;;;;;;;;;9.50;8.25;;;;;14.50;42.83;101443.34;146618;596;46020;-67
2023/01/13 09:31:56;;;;;;;;;10.00;8.50;;;;;14.31;43.04;101443.31;146613;576;46015;-66
2023/01/13 09:34:59;;;;;;;;;9.50;9.00;;;;;14.12;43.61;101438.03;146609;627;46010;-66
2023/01/13 09:37:54;;;;;;;;;12.75;11.25;;;;;13.94;43.16;101444.13;146615;617;46016;-66
2023/01/13 09:40:52;;;;;;;;;16.25;11.25;;;;;13.84;44.52;101447.13;146613;602;46021;-66
2023/01/13 09:44:01;;;;;;;;;12.75;11.75;;;;;13.79;43.80;101449.47;146610;608;46016;-66
2023/01/13 09:47:00;;;;;;;;;12.75;10.00;;;;;13.79;44.02;101446.87;146611;617;47011;-66
2023/01/13 09:50:29;;;;;;;;;15.50;13.25;;;;;10.93;44.37;100938.87;146610;603;47014;-65
2023/01/13 09:53:42;;;;;;;;;10.50;10.25;;;;;13.73;43.74;101436.16;146611;671;46010;-67
2023/01/13 09:56:41;;;;;;;;;16.25;13.25;;;;;13.70;44.82;101440.31;146613;627;46012;-66
2023/01/13 09:59:52;;;;;;;;;27.25;19.25;;;;;13.77;45.49;101437.19;146613;594;46010;-66
2023/01/13 10:03:37;;;;;;;;;25.50;20.75;;;;;11.19;47.99;100941.97;146601;790;47940;-66
2023/01/13 10:07:03;;;;;;;;;12.50;11.50;;;;;11.42;45.10;100953.53;146605;564;46020;-66
2023/01/13 10:10:16;;;;;;;;;10.50;10.00;;;;;11.51;45.66;100952.31;146611;592;46012;-66
2023/01/13 10:13:28;;;;;;;;;9.50;8.50;;;;;14.20;43.22;101414.09;146615;587;46010;-68
2023/01/13 10:16:51;;;;;;;;;9.50;8.50;;;;;14.08;43.86;101416.09;146614;620;46015;-65
2023/01/13 10:20:32;;;;;;;;;11.25;11.25;;;;;11.42;47.47;100957.03;146621;616;46020;-66
2023/01/13 10:24:07;;;;;;;;;11.25;10.25;;;;;11.47;44.60;100937.38;146611;674;46016;-66
2023/01/13 10:27:48;;;;;;;;;;;;;;;;;;;;;
2023/01/13 10:30:51;;;;;;;;;13.00;10.75;;;;;14.33;43.99;101393.00;146608;564;46016;-65
2023/01/13 10:33:55;;;;;;;;;11.00;10.00;;;;;14.41;43.06;101395.06;146612;563;46012;-66
2023/01/13 10:37:25;;;;;;;;;16.50;14.25;;;;;13.17;46.66;101151.19;146608;585;46016;-66
2023/01/13 10:40:24;;;;;;;;;17.25;11.75;;;;;14.77;43.82;101380.22;146605;569;46021;-66
2023/01/13 10:43:39;;;;;;;;;14.00;12.75;;;;;14.82;41.31;101376.09;146607;578;46016;-66
2023/01/13 10:46:40;;;;;;;;;12.50;11.75;;;;;14.82;43.18;101370.84;146612;570;46030;-66
2023/01/13 10:49:50;;;;;;;;;14.25;9.50;;;;;14.99;44.22;101369.00;146609;612;46016;-66
2023/01/13 10:53:03;;;;;;;;;13.75;10.50;;;;;15.12;44.35;101367.81;146617;570;46011;-66
2023/01/13 10:56:10;;;;;;;;;10.00;7.75;;;;;15.23;42.60;101356.09;146609;618;46016;-67
2023/01/13 10:59:32;;;;;;;;;11.75;10.50;;;;;15.38;43.76;101354.12;146618;663;46020;-65
2023/01/13 11:02:41;;;;;;;;;12.00;10.00;;;;;15.52;43.60;101343.38;146610;590;46016;-65
2023/01/13 11:05:38;;;;;;;;;11.00;10.00;;;;;15.64;40.88;101341.25;146614;668;47010;-66
2023/01/13 11:08:54;;;;;;;;;11.50;11.00;;;;;13.13;44.11;100880.22;146610;590;46013;-66
2023/01/13 11:12:04;;;;;;;;;;;;;;;;;;;;;
2023/01/13 11:15:06;;;;;;;;;10.75;10.75;;;;;15.89;40.88;101322.25;146608;567;46017;-66
2023/01/13 11:18:39;;;;;;;;;11.75;10.75;;;;;13.42;42.16;100885.78;146614;612;46010;-65
2023/01/13 11:22:01;;;;;;;;;11.50;9.50;;;;;13.37;40.57;100864.78;146607;629;47014;-66
2023/01/13 11:25:30;;;;;;;;;13.75;12.75;;;;;15.97;41.38;101325.13;146619;602;46010;-65
2023/01/13 11:29:00;;;;;;;;;9.50;8.50;;;;;15.93;43.48;101325.00;146603;689;46031;-67
2023/01/13 11:32:06;;;;;;;;;11.75;11.00;;;;;15.99;40.89;101321.75;146619;617;46023;-67
2023/01/13 11:35:38;;;;;;;;;7.50;7.25;;;;;13.44;42.01;100859.00;146611;582;46016;-67
2023/01/13 11:39:09;;;;;;;;;7.50;7.00;;;;;13.71;41.89;100887.91;146620;658;46012;-67
2023/01/13 11:42:37;;;;;;;;;9.00;7.25;;;;;13.62;41.46;100859.75;146617;565;47012;-68
2023/01/13 11:46:07;;;;;;;;;14.75;10.25;;;;;16.23;42.46;101319.19;146608;601;47012;-67
2023/01/13 11:49:04;;;;;;;;;13.00;9.50;;;;;16.27;41.25;101307.09;146611;635;47012;-68
2023/01/13 11:52:48;;;;;;;;;10.75;9.25;;;;;13.81;44.23;100860.50;146618;637;46021;-67
2023/01/13 11:56:23;;;;;;;;;9.50;7.50;;;;;16.54;39.40;101310.75;146615;609;46016;-66
2023/01/13 11:59:55;;;;;;;;;7.50;7.00;;;;;16.45;39.79;101309.50;146623;572;46011;-66
2023/01/13 12:03:34;;;;;;;;;9.25;7.25;;;;;16.36;40.11;101303.09;146615;563;46016;-67
2023/01/13 12:06:52;;;;;;;;;10.25;8.75;;;;;16.26;40.43;101300.06;146620;626;46021;-66
2023/01/13 12:10:12;;;;;;;;;7.50;7.50;;;;;16.28;39.46;101298.41;146616;602;46016;-66
2023/01/13 12:13:42;;;;;;;;;6.00;6.00;;;;;13.65;41.43;100834.66;146619;572;46022;-66
2023/01/13 12:16:48;;;;;;;;;8.50;7.00;;;;;16.28;38.48;101294.06;146618;571;46016;-67
2023/01/13 12:19:52;;;;;;;;;6.00;6.00;;;;;16.19;38.73;101290.22;146608;625;46020;-65
2023/01/13 12:22:51;;;;;;;;;11.75;11.75;;;;;16.13;40.63;101276.06;146617;621;46017;-67
2023/01/13 12:26:00;;;;;;;;;12.00;11.00;;;;;16.28;39.36;101280.09;146615;575;46010;-67
2023/01/13 12:29:14;;;;;;;;;12.00;12.00;;;;;16.32;39.15;101272.44;146608;603;46017;-66
2023/01/13 12:32:26;;;;;;;;;13.75;12.00;;;;;16.40;39.95;101280.53;146615;609;46020;-67
2023/01/13 12:36:07;;;;;;;;;18.00;15.75;;;;;16.63;40.40;101284.91;146608;579;46016;-66
2023/01/13 12:39:35;;;;;;;;;12.00;11.75;;;;;16.81;41.38;101281.16;146614;628;47010;-66
2023/01/13 12:46:57;;;;;;;;;11.25;9.00;;;;;14.79;42.98;100887.78;146613;575;46010;-67
2023/01/13 12:50:21;;;;;;;;;13.75;11.00;;;;;17.28;40.17;101289.72;146615;602;46016;-67
2023/01/13 12:53:39;;;;;;;;;14.00;13.25;;;;;17.46;40.08;101287.72;146606;708;47010;-66
2023/01/13 12:56:50;;;;;;;;;12.50;9.25;;;;;17.60;39.81;101288.16;146603;616;48914;-66
2023/01/13 12:59:47;;;;;;;;;13.50;11.50;;;;;17.69;38.79;101287.53;146622;576;46019;-65
2023/01/13 13:03:32;;;;;;;;;11.25;10.25;;;;;15.35;39.70;100851.44;146611;563;46034;-67
2023/01/13 13:06:35;;;;;;;;;9.25;9.25;;;;;17.86;38.77;101291.63;146613;567;46021;-67
2023/01/13 13:10:02;;;;;;;;;10.00;8.25;;;;;17.87;38.84;101296.00;146613;626;46016;-67
2023/01/13 13:13:25;;;;;;;;;13.00;11.50;;;;;15.43;41.89;100868.28;146613;672;47012;-67
2023/01/13 13:16:50;;;;;;;;;11.75;10.75;;;;;15.47;39.86;100837.06;146610;562;46016;-66
2023/01/13 13:19:49;;;;;;;;;14.50;13.50;;;;;18.18;37.51;101299.56;146613;569;46020;-66
2023/01/13 13:23:04;;;;;;;;;;;;;;;;;;;;;
2023/01/13 13:26:35;;;;;;;;;12.75;11.00;;;;;18.23;40.26;101304.09;146606;594;46020;-66
2023/01/13 13:29:54;;;;;;;;;12.25;11.75;;;;;18.32;39.62;101305.22;146610;576;46916;-66
2023/01/13 13:33:24;;;;;;;;;17.25;14.25;;;;;18.30;40.48;101301.66;146609;604;46020;-67
2023/01/13 13:37:14;;;;;;;;;10.50;10.00;;;;;18.32;40.57;101310.47;146609;581;46017;-68
2023/01/13 13:47:05;;;;;;;;;11.50;9.25;;;;;18.28;39.36;101319.97;146614;709;46020;-66
2023/01/13 13:49:59;;;;;;;;;8.67;8.67;;;;;18.26;37.43;101311.19;146618;605;46016;-67
2023/01/13 13:53:22;;;;;;;;;12.00;10.75;;;;;15.98;40.03;100953.81;146619;685;46010;-66
2023/01/13 13:56:49;;;;;;;;;11.67;9.67;;;;;15.50;40.10;100877.22;146610;598;47014;-66
2023/01/13 13:59:42;;;;;;;;;12.25;12.25;;;;;17.95;38.68;101315.50;146608;655;46011;-67
2023/01/13 14:03:00;;;;;;;;;11.00;10.25;;;;;17.91;40.89;101323.22;146611;700;46014;-66
2023/01/13 14:06:28;;;;;;;;;10.00;10.00;;;;;16.38;42.40;101085.91;146613;589;46011;-67
2023/01/13 14:09:58;;;;;;;;;13.50;12.75;;;;;17.72;41.70;101325.25;146610;741;47012;-66
2023/01/13 14:12:54;;;;;;;;;13.50;13.50;;;;;17.66;39.17;101319.84;146614;673;46012;-68
2023/01/13 14:15:52;;;;;;;;;13.00;10.25;;;;;17.49;39.31;101316.66;146609;600;46026;-67
2023/01/13 14:18:55;;;;;;;;;18.50;15.25;;;;;17.30;39.96;101319.50;146612;588;46020;-66
2023/01/13 14:22:02;;;;;;;;;13.00;13.00;;;;;14.47;40.96;100863.94;146610;579;46017;-66
2023/01/13 14:25:29;;;;;;;;;22.50;20.25;;;;;13.94;42.76;100804.53;146614;675;46020;-69
2023/01/13 14:28:50;;;;;;;;;15.50;13.75;;;;;14.01;43.44;100843.91;146607;595;46016;-67
2023/01/13 14:31:51;;;;;;;;;10.75;10.00;;;;;16.68;41.01;101323.44;146606;569;46010;-68
2023/01/13 14:34:56;;;;;;;;;20.50;14.00;;;;;16.43;42.13;101324.28;146610;708;46015;-67
2023/01/13 14:38:06;;;;;;;;;15.50;14.25;;;;;16.15;42.21;101315.37;146610;598;46010;-68
2023/01/13 14:41:25;;;;;;;;;18.00;15.75;;;;;15.86;44.21;101314.28;146609;635;46012;-66
2023/01/13 14:44:43;;;;;;;;;17.00;16.25;;;;;12.78;44.42;100843.13;146612;617;46012;-66
2023/01/13 14:47:38;;;;;;;;;20.50;18.25;;;;;15.21;44.33;101318.56;146607;581;46016;-67
2023/01/13 14:50:41;;;;;;;;;34.50;28.00;;;;;14.88;44.62;101320.63;146610;596;46021;-67
2023/01/13 14:53:50;;;;;;;;;16.50;16.00;;;;;14.55;45.05;101328.78;146609;576;46016;-67
2023/01/13 14:57:26;;;;;;;;;23.00;21.50;;;;;14.28;47.27;101329.28;146609;631;47020;-66
2023/01/13 15:00:32;;;;;;;;;15.50;15.00;;;;;14.05;46.94;101335.16;146609;613;47012;-68
2023/01/13 15:03:35;;;;;;;;;;;;;;;;;;;;;
2023/01/13 15:06:37;;;;;;;;;25.75;23.50;;;;;13.76;47.73;101328.53;146611;575;46016;-68
2023/01/13 15:09:52;;;;;;;;;;;;;;;;;;;;;
2023/01/13 15:12:47;;;;;;;;;22.50;21.00;;;;;13.43;48.54;101328.72;146610;661;46017;-66
2023/01/13 15:15:56;;;;;;;;;22.25;20.75;;;;;10.33;48.99;100820.72;146613;569;46010;-66
2023/01/13 15:18:58;;;;;;;;;24.75;23.50;;;;;13.15;49.18;101323.81;146611;651;46016;-66
2023/01/13 15:21:50;;;;;;;;;24.75;23.00;;;;;13.08;49.26;101333.03;146612;673;46021;-67
2023/01/13 15:24:51;;;;;;;;;33.75;30.25;;;;;13.04;49.14;101341.47;146609;586;46016;-66
2023/01/13 15:28:03;;;;;;;;;47.50;35.00;;;;;9.83;49.54;100791.22;146612;583;46021;-66
2023/01/13 15:31:00;;;;;;;;;38.75;31.75;;;;;12.93;49.78;101342.66;146608;577;46016;-66